createdAt,value
2022-10-05T00:01:24.862Z,6.20
2022-10-05T00:04:02.059Z,4.70
2022-10-05T00:06:30.270Z,6.30
2022-10-05T00:08:59.076Z,6.00
2022-10-05T00:11:25.666Z,6.40
2022-10-05T00:13:52.828Z,6.10
2022-10-05T00:16:21.047Z,4.80
2022-10-05T00:18:50.920Z,8.10
2022-10-05T00:21:26.091Z,7.50
2022-10-05T00:23:55.669Z,6.20
2022-10-05T00:26:25.122Z,4.10
2022-10-05T00:28:53.491Z,5.00
2022-10-05T00:31:26.630Z,5.70
2022-10-05T00:33:55.070Z,6.10
2022-10-05T00:36:21.993Z,5.20
2022-10-05T00:38:48.643Z,5.80
2022-10-05T00:41:26.010Z,6.00
2022-10-05T00:44:25.099Z,6.00
2022-10-05T00:46:54.336Z,5.90
2022-10-05T00:49:39.831Z,9.80
2022-10-05T00:52:21.957Z,7.60
2022-10-05T00:54:59.704Z,7.00
2022-10-05T00:57:41.526Z,6.20
2022-10-05T01:00:13.047Z,6.50
2022-10-05T01:02:58.567Z,6.20
2022-10-05T01:05:58.577Z,6.50
2022-10-05T01:08:36.426Z,5.70
2022-10-05T01:11:36.053Z,7.00
2022-10-05T01:14:46.384Z,5.60
2022-10-05T01:17:25.278Z,7.40
2022-10-05T01:20:10.734Z,8.10
2022-10-05T01:22:52.598Z,6.00
2022-10-05T01:25:44.487Z,7.20
2022-10-05T01:28:14.022Z,6.00
2022-10-05T01:30:50.682Z,5.80
2022-10-05T01:33:32.297Z,6.30
2022-10-05T01:36:07.419Z,6.80
2022-10-05T01:38:55.878Z,5.10
2022-10-05T01:45:06.154Z,6.40
2022-10-05T01:47:43.740Z,5.20
2022-10-05T01:50:52.105Z,5.90
2022-10-05T01:53:53.666Z,6.00
2022-10-05T01:56:32.136Z,5.00
2022-10-05T01:59:16.085Z,5.20
2022-10-05T02:01:49.770Z,5.90
2022-10-05T02:05:01.337Z,5.30
2022-10-05T02:07:34.282Z,5.70
2022-10-05T02:10:14.553Z,6.10
2022-10-05T02:12:43.453Z,8.00
2022-10-05T02:15:15.055Z,6.20
2022-10-05T02:17:48.385Z,5.60
2022-10-05T02:20:20.972Z,6.10
2022-10-05T02:22:51.297Z,6.70
2022-10-05T02:25:22.182Z,6.30
2022-10-05T02:28:01.126Z,5.40
2022-10-05T02:30:31.811Z,5.50
2022-10-05T02:33:06.596Z,5.90
2022-10-05T02:35:33.494Z,5.90
2022-10-05T02:38:14.612Z,6.20
2022-10-05T02:40:46.535Z,7.90
2022-10-05T02:43:48.552Z,5.40
2022-10-05T02:46:47.382Z,7.50
2022-10-05T02:49:23.594Z,5.90
2022-10-05T02:52:11.153Z,7.30
2022-10-05T02:55:10.278Z,6.40
2022-10-05T02:57:43.372Z,6.50
2022-10-05T03:00:13.380Z,6.40
2022-10-05T03:02:42.027Z,5.60
2022-10-05T03:05:25.139Z,5.20
2022-10-05T03:08:01.848Z,6.40
2022-10-05T03:10:34.043Z,5.50
2022-10-05T03:13:29.780Z,6.90
2022-10-05T03:16:25.987Z,7.10
2022-10-05T03:19:10.518Z,6.50
2022-10-05T03:22:01.270Z,5.90
2022-10-05T03:24:55.090Z,6.90
2022-10-05T03:27:39.226Z,7.40
2022-10-05T03:30:17.370Z,5.00
2022-10-05T03:32:49.696Z,7.70
2022-10-05T03:35:34.844Z,6.50
2022-10-05T03:38:01.378Z,6.80
2022-10-05T03:40:44.224Z,5.70
2022-10-05T03:43:28.782Z,6.10
2022-10-05T03:46:02.819Z,6.90
2022-10-05T03:48:38.062Z,6.20
2022-10-05T03:51:16.054Z,5.80
2022-10-05T03:54:03.836Z,7.50
2022-10-05T03:56:40.066Z,8.10
2022-10-05T03:59:21.219Z,7.50
2022-10-05T04:02:01.682Z,5.80
2022-10-05T04:04:54.436Z,7.30
2022-10-05T04:07:38.129Z,5.80
2022-10-05T04:10:12.308Z,6.90
2022-10-05T04:12:44.349Z,7.50
2022-10-05T04:15:40.306Z,5.50
2022-10-05T04:18:20.793Z,7.90
2022-10-05T04:20:54.398Z,7.00
2022-10-05T04:23:44.699Z,7.20
2022-10-05T04:26:19.608Z,6.90
2022-10-05T04:28:56.941Z,6.00
2022-10-05T04:31:30.484Z,8.80
2022-10-05T04:34:09.143Z,7.20
2022-10-05T04:36:49.599Z,10.10
2022-10-05T04:39:41.960Z,9.00
2022-10-05T04:42:27.020Z,8.10
2022-10-05T04:45:27.566Z,8.70
2022-10-05T04:48:21.437Z,7.50
2022-10-05T04:51:25.220Z,8.10
2022-10-05T04:53:58.713Z,6.10
2022-10-05T04:56:40.707Z,6.80
2022-10-05T04:59:32.066Z,6.30
2022-10-05T05:02:17.787Z,7.00
2022-10-05T05:05:01.854Z,6.10
2022-10-05T05:08:12.545Z,7.50
2022-10-05T05:11:04.304Z,9.00
2022-10-05T05:13:45.982Z,8.40
2022-10-05T05:16:18.913Z,9.40
2022-10-05T05:18:48.359Z,8.50
2022-10-05T05:21:27.038Z,9.70
2022-10-05T05:23:53.602Z,8.10
2022-10-05T05:26:23.016Z,9.00
2022-10-05T05:28:54.951Z,6.20
2022-10-05T05:31:40.464Z,6.40
2022-10-05T05:34:29.204Z,7.80
2022-10-05T05:37:14.809Z,7.80
2022-10-05T05:40:03.993Z,7.70
2022-10-05T05:42:52.734Z,7.80
2022-10-05T05:45:44.106Z,7.90
2022-10-05T05:48:23.029Z,8.60
2022-10-05T05:50:55.681Z,7.10
2022-10-05T05:53:41.820Z,8.10
2022-10-05T05:56:24.019Z,7.60
2022-10-05T05:59:04.790Z,9.50
2022-10-05T06:01:44.254Z,7.00
2022-10-05T06:04:17.117Z,8.30
2022-10-05T06:06:48.889Z,9.50
2022-10-05T06:09:24.084Z,8.70
2022-10-05T06:11:55.111Z,8.20
2022-10-05T06:14:47.441Z,7.90
2022-10-05T06:17:24.443Z,8.20
2022-10-05T06:20:02.515Z,8.90
2022-10-05T06:22:39.638Z,10.70
2022-10-05T06:25:12.365Z,7.60
2022-10-05T06:27:57.965Z,8.50
2022-10-05T06:30:30.947Z,8.30
2022-10-05T06:33:31.255Z,6.70
2022-10-05T06:36:09.091Z,7.30
2022-10-05T06:38:47.648Z,6.60
2022-10-05T06:41:51.611Z,9.00
2022-10-05T06:44:28.920Z,7.80
2022-10-05T06:47:14.045Z,9.50
2022-10-05T06:50:08.583Z,8.60
2022-10-05T06:53:00.854Z,8.00
2022-10-05T06:55:45.597Z,8.90
2022-10-05T06:58:31.233Z,9.70
2022-10-05T07:01:20.021Z,7.80
2022-10-05T07:04:24.281Z,9.30
2022-10-05T07:07:09.154Z,12.40
2022-10-05T07:09:50.129Z,7.30
2022-10-05T07:12:44.622Z,6.60
2022-10-05T07:15:29.587Z,6.80
2022-10-05T07:18:04.805Z,5.70
2022-10-05T07:21:02.778Z,8.40
2022-10-05T07:24:13.149Z,7.90
2022-10-05T07:26:47.089Z,7.60
2022-10-05T07:29:20.117Z,6.80
2022-10-05T07:32:15.860Z,7.10
2022-10-05T07:35:38.648Z,8.00
2022-10-05T07:38:21.061Z,8.20
2022-10-05T07:41:09.041Z,8.20
2022-10-05T07:44:00.938Z,7.00
2022-10-05T07:46:46.900Z,9.10
2022-10-05T07:49:41.953Z,6.10
2022-10-05T07:52:22.716Z,8.30
2022-10-05T07:55:12.881Z,9.00
2022-10-05T07:58:01.669Z,7.50
2022-10-05T08:00:42.559Z,7.00
2022-10-05T08:03:31.942Z,7.00
2022-10-05T08:06:01.382Z,5.90
2022-10-05T08:08:38.021Z,6.90
2022-10-05T08:11:50.143Z,7.20
2022-10-05T08:14:27.644Z,7.60
2022-10-05T08:16:57.927Z,7.40
2022-10-05T08:19:34.058Z,7.50
2022-10-05T08:22:06.232Z,6.70
2022-10-05T08:25:03.392Z,7.70
2022-10-05T08:27:52.302Z,6.90
2022-10-05T08:30:19.289Z,6.00
2022-10-05T08:33:05.633Z,7.80
2022-10-05T08:35:43.972Z,6.80
2022-10-05T08:38:16.704Z,8.20
2022-10-05T08:41:07.924Z,6.30
2022-10-05T08:46:17.718Z,6.10
2022-10-05T08:49:24.517Z,7.00
2022-10-05T08:52:13.957Z,7.80
2022-10-05T08:54:46.682Z,6.70
2022-10-05T08:57:16.007Z,7.40
2022-10-05T09:00:08.896Z,7.80
2022-10-05T09:03:11.592Z,5.80
2022-10-05T09:05:57.921Z,6.20
2022-10-05T09:08:52.134Z,6.30
2022-10-05T09:11:41.765Z,7.30
2022-10-05T09:14:17.422Z,6.00
2022-10-05T09:16:46.882Z,6.10
2022-10-05T09:19:40.328Z,7.10
2022-10-05T09:22:32.840Z,7.40
2022-10-05T09:25:28.084Z,7.10
2022-10-05T09:28:23.974Z,6.60
2022-10-05T09:31:22.869Z,7.70
2022-10-05T09:33:56.735Z,7.20
2022-10-05T09:36:46.127Z,5.20
2022-10-05T09:39:24.710Z,5.80
2022-10-05T09:42:28.869Z,5.10
2022-10-05T09:45:23.223Z,5.40
2022-10-05T09:48:30.318Z,6.00
2022-10-05T09:51:31.902Z,7.90
2022-10-05T09:54:07.183Z,5.30
2022-10-05T09:57:08.693Z,6.60
2022-10-05T09:59:56.870Z,7.70
2022-10-05T10:02:41.477Z,8.10
2022-10-05T10:05:16.971Z,7.70
2022-10-05T10:07:51.003Z,6.00
2022-10-05T10:10:37.412Z,4.80
2022-10-05T10:13:04.277Z,5.50
2022-10-05T10:16:03.601Z,6.20
2022-10-05T10:18:51.235Z,5.90
2022-10-05T10:21:56.159Z,5.70
2022-10-05T10:24:48.130Z,5.20
2022-10-05T10:27:23.612Z,5.50
2022-10-05T10:29:59.193Z,7.90
2022-10-05T10:32:56.890Z,6.80
2022-10-05T10:36:01.589Z,5.90
2022-10-05T10:38:33.550Z,6.60
2022-10-05T10:41:03.154Z,8.60
2022-10-05T10:44:06.278Z,6.90
2022-10-05T10:46:35.784Z,6.60
2022-10-05T10:49:16.044Z,4.80
2022-10-05T10:52:20.053Z,7.30
2022-10-05T10:55:16.034Z,6.50
2022-10-05T10:58:24.839Z,5.70
2022-10-05T11:01:32.985Z,5.60
2022-10-05T11:04:36.677Z,7.00
2022-10-05T11:07:23.663Z,6.20
2022-10-05T11:10:28.678Z,5.10
2022-10-05T11:13:13.503Z,5.30
2022-10-05T11:16:15.955Z,3.60
2022-10-05T11:18:45.774Z,5.50
2022-10-05T11:21:36.670Z,7.10
2022-10-05T11:24:41.835Z,4.00
2022-10-05T11:27:24.806Z,3.20
2022-10-05T11:30:12.657Z,4.70
2022-10-05T11:32:57.851Z,3.60
2022-10-05T11:35:46.200Z,5.30
2022-10-05T11:38:21.354Z,4.00
2022-10-05T11:41:20.685Z,3.60
2022-10-05T11:44:06.976Z,5.60
2022-10-05T11:46:43.534Z,4.70
2022-10-05T11:49:34.318Z,4.80
2022-10-05T11:52:16.644Z,4.00
2022-10-05T11:55:20.480Z,6.70
2022-10-05T11:58:00.687Z,5.50
2022-10-05T12:01:04.750Z,4.00
2022-10-05T12:04:00.370Z,3.80
2022-10-05T12:06:35.582Z,4.20
2022-10-05T12:09:14.128Z,2.90
2022-10-05T12:12:08.345Z,3.50
2022-10-05T12:14:47.876Z,3.30
2022-10-05T12:17:35.217Z,3.70
2022-10-05T12:20:20.820Z,4.90
2022-10-05T12:22:56.787Z,5.10
2022-10-05T12:25:39.978Z,4.40
2022-10-05T12:28:13.054Z,6.50
2022-10-05T12:31:00.562Z,4.00
2022-10-05T12:33:41.163Z,4.20
2022-10-05T12:36:19.758Z,4.60
2022-10-05T12:39:05.147Z,5.00
2022-10-05T12:41:51.456Z,7.10
2022-10-05T12:44:20.760Z,5.00
2022-10-05T12:47:18.707Z,4.10
2022-10-05T12:49:55.026Z,2.90
2022-10-05T12:52:36.399Z,4.70
2022-10-05T12:55:15.364Z,2.90
2022-10-05T12:57:46.891Z,2.50
2022-10-05T13:00:21.903Z,5.10
2022-10-05T13:02:54.644Z,4.00
2022-10-05T13:05:53.430Z,3.30
2022-10-05T13:08:39.768Z,3.50
2022-10-05T13:11:17.308Z,4.20
2022-10-05T13:13:55.517Z,3.90
2022-10-05T13:16:27.796Z,5.20
2022-10-05T13:19:00.047Z,6.50
2022-10-05T13:21:38.556Z,2.90
2022-10-05T13:24:17.557Z,7.40
2022-10-05T13:26:48.554Z,4.20
2022-10-05T13:29:54.499Z,3.70
2022-10-05T13:32:25.735Z,5.20
2022-10-05T13:35:11.407Z,2.70
2022-10-05T13:37:46.027Z,2.40
2022-10-05T13:40:35.285Z,3.60
2022-10-05T13:43:07.667Z,2.80
2022-10-05T13:45:56.782Z,2.50
2022-10-05T13:48:48.169Z,1.80
2022-10-05T13:51:51.388Z,2.90
2022-10-05T13:54:31.686Z,2.10
2022-10-05T13:57:10.688Z,3.10
2022-10-05T13:59:58.065Z,1.50
2022-10-05T14:02:30.746Z,2.00
2022-10-05T14:05:04.487Z,3.30
2022-10-05T14:07:38.493Z,2.10
2022-10-05T14:10:13.187Z,3.20
2022-10-05T14:12:41.904Z,1.90
2022-10-05T14:15:32.449Z,3.20
2022-10-05T14:17:59.217Z,2.90
2022-10-05T14:20:31.007Z,3.60
2022-10-05T14:23:03.832Z,3.10
2022-10-05T14:25:31.555Z,3.50
2022-10-05T14:28:03.191Z,3.50
2022-10-05T14:30:32.000Z,5.50
2022-10-05T14:33:04.619Z,3.60
2022-10-05T14:35:52.826Z,3.40
2022-10-05T14:38:26.390Z,2.50
2022-10-05T14:41:25.350Z,3.90
2022-10-05T14:44:11.993Z,6.80
2022-10-05T14:46:49.128Z,3.80
2022-10-05T14:49:27.112Z,2.60
2022-10-05T14:51:55.379Z,2.60
2022-10-05T14:54:53.859Z,4.80
2022-10-05T14:57:33.513Z,3.90
2022-10-05T15:00:11.936Z,3.30
2022-10-05T15:02:53.634Z,3.20
2022-10-05T15:05:42.448Z,2.30
2022-10-05T15:08:12.195Z,3.10
2022-10-05T15:10:49.714Z,3.60
2022-10-05T15:13:20.622Z,2.30
2022-10-05T15:15:54.711Z,3.60
2022-10-05T15:18:32.058Z,3.90
2022-10-05T15:21:32.695Z,3.40
2022-10-05T15:24:13.134Z,3.40
2022-10-05T15:26:54.927Z,4.20
2022-10-05T15:29:27.598Z,3.80
2022-10-05T15:32:14.667Z,3.00
2022-10-05T15:34:51.657Z,3.70
2022-10-05T15:37:53.475Z,4.20
2022-10-05T15:40:59.162Z,3.90
2022-10-05T15:43:35.902Z,2.40
2022-10-05T15:46:24.526Z,2.80
2022-10-05T15:49:34.213Z,2.40
2022-10-05T15:52:19.153Z,2.50
2022-10-05T15:54:54.816Z,1.70
2022-10-05T15:58:11.100Z,2.10
2022-10-05T16:00:51.720Z,3.60
2022-10-05T16:03:33.765Z,2.40
2022-10-05T16:06:27.343Z,2.90
2022-10-05T16:09:08.866Z,2.20
2022-10-05T16:11:45.238Z,3.50
2022-10-05T16:14:28.043Z,6.60
2022-10-05T16:17:16.345Z,2.40
2022-10-05T16:20:03.119Z,2.90
2022-10-05T16:23:08.729Z,3.50
2022-10-05T16:26:01.202Z,2.70
2022-10-05T16:28:46.092Z,3.40
2022-10-05T16:31:37.391Z,5.00
2022-10-05T16:34:03.737Z,3.10
2022-10-05T16:36:54.646Z,4.10
2022-10-05T16:39:45.641Z,3.60
2022-10-05T16:42:59.321Z,2.30
2022-10-05T16:45:45.947Z,5.40
2022-10-05T16:48:17.222Z,3.50
2022-10-05T16:50:57.218Z,2.70
2022-10-05T16:53:33.923Z,3.50
2022-10-05T16:56:04.511Z,3.10
2022-10-05T16:59:08.856Z,3.70
2022-10-05T17:01:56.175Z,3.70
2022-10-05T17:05:04.005Z,6.00
2022-10-05T17:08:09.299Z,5.30
2022-10-05T17:10:47.462Z,3.60
2022-10-05T17:13:40.996Z,3.30
2022-10-05T17:16:44.827Z,4.60
2022-10-05T17:19:43.035Z,4.20
2022-10-05T17:22:26.836Z,6.70
2022-10-05T17:25:12.190Z,4.40
2022-10-05T17:27:56.721Z,4.30
2022-10-05T17:30:36.136Z,5.10
2022-10-05T17:33:27.571Z,4.00
2022-10-05T17:36:03.063Z,4.10
2022-10-05T17:38:48.771Z,3.90
2022-10-05T17:41:17.897Z,4.00
2022-10-05T17:44:24.839Z,7.20
2022-10-05T17:46:55.951Z,4.60
2022-10-05T17:49:22.416Z,4.40
2022-10-05T17:52:07.268Z,5.50
2022-10-05T17:55:20.707Z,3.60
2022-10-05T17:57:47.351Z,4.10
2022-10-05T18:00:27.719Z,3.60
2022-10-05T18:02:57.493Z,4.40
2022-10-05T18:05:29.181Z,5.40
2022-10-05T18:08:16.349Z,5.70
2022-10-05T18:11:37.736Z,5.30
2022-10-05T18:14:24.564Z,5.70
2022-10-05T18:17:03.742Z,4.50
2022-10-05T18:19:32.369Z,3.30
2022-10-05T18:22:28.386Z,4.30
2022-10-05T18:25:03.922Z,3.40
2022-10-05T18:27:50.528Z,3.40
2022-10-05T18:30:23.332Z,4.80
2022-10-05T18:33:08.626Z,3.50
2022-10-05T18:35:59.935Z,4.50
2022-10-05T18:39:24.233Z,5.60
2022-10-05T18:41:56.275Z,5.40
2022-10-05T18:44:58.050Z,3.50
2022-10-05T18:48:09.758Z,3.70
2022-10-05T18:50:57.745Z,3.40
2022-10-05T18:53:30.497Z,3.80
2022-10-05T18:56:32.398Z,4.30
2022-10-05T18:59:24.326Z,3.40
2022-10-05T19:02:10.981Z,4.40
2022-10-05T19:05:00.434Z,3.80
2022-10-05T19:07:45.815Z,3.10
2022-10-05T19:10:21.516Z,2.80
2022-10-05T19:13:04.956Z,3.70
2022-10-05T19:15:50.392Z,3.30
2022-10-05T19:18:28.811Z,3.60
2022-10-05T19:21:06.977Z,4.60
2022-10-05T19:23:51.021Z,3.90
2022-10-05T19:26:41.644Z,4.50
2022-10-05T19:29:36.329Z,3.50
2022-10-05T19:32:17.432Z,4.10
2022-10-05T19:34:43.847Z,4.40
2022-10-05T19:37:19.325Z,4.50
2022-10-05T19:39:55.131Z,3.20
2022-10-05T19:42:52.779Z,6.30
2022-10-05T19:45:24.757Z,4.00
2022-10-05T19:48:07.464Z,2.70
2022-10-05T19:50:37.625Z,3.40
2022-10-05T19:53:24.241Z,3.30
2022-10-05T19:55:51.529Z,3.80
2022-10-05T19:58:21.786Z,4.30
2022-10-05T20:01:06.663Z,4.10
2022-10-05T20:03:36.767Z,3.00
2022-10-05T20:06:05.856Z,5.20
2022-10-05T20:08:45.909Z,3.10
2022-10-05T20:11:27.628Z,2.50
2022-10-05T20:13:54.981Z,2.90
2022-10-05T20:16:49.244Z,3.00
2022-10-05T20:19:49.387Z,3.90
2022-10-05T20:22:24.643Z,4.20
2022-10-05T20:24:54.068Z,2.90
2022-10-05T20:27:39.402Z,3.40
2022-10-05T20:30:07.604Z,3.60
2022-10-05T20:32:34.193Z,3.80
2022-10-05T20:35:00.849Z,3.70
2022-10-05T20:37:27.311Z,5.10
2022-10-05T20:39:53.681Z,4.00
2022-10-05T20:42:20.898Z,4.90
2022-10-05T20:44:49.931Z,4.80
2022-10-05T20:47:19.720Z,3.80
2022-10-05T20:49:46.166Z,3.80
2022-10-05T20:52:14.983Z,3.50
2022-10-05T20:54:42.078Z,3.40
2022-10-05T20:57:09.865Z,2.70
2022-10-05T20:59:37.042Z,2.70
2022-10-05T21:02:04.185Z,5.70
2022-10-05T21:04:40.210Z,2.60
2022-10-05T21:07:08.177Z,4.30
2022-10-05T21:09:37.870Z,5.00
2022-10-05T21:12:19.452Z,2.40
2022-10-05T21:14:47.375Z,2.20
2022-10-05T21:17:14.149Z,4.50
2022-10-05T21:19:40.719Z,3.60
2022-10-05T21:22:09.198Z,4.70
2022-10-05T21:24:37.709Z,2.30
2022-10-05T21:27:05.195Z,2.50
2022-10-05T21:29:32.982Z,3.90
2022-10-05T21:32:00.333Z,3.40
2022-10-05T21:34:26.838Z,3.30
2022-10-05T21:36:53.745Z,2.90
2022-10-05T21:39:20.624Z,2.90
2022-10-05T21:41:49.606Z,3.00
2022-10-05T21:44:16.602Z,2.50
2022-10-05T21:46:43.136Z,2.80
2022-10-05T21:49:17.464Z,3.70
2022-10-05T21:51:46.281Z,2.50
2022-10-05T21:54:16.744Z,3.90
2022-10-05T21:56:46.315Z,2.60
2022-10-05T21:59:17.251Z,4.00
2022-10-05T22:01:44.315Z,3.20
2022-10-05T22:04:11.010Z,2.80
2022-10-05T22:06:37.770Z,4.60
2022-10-05T22:09:05.974Z,4.00
2022-10-05T22:11:33.531Z,3.60
2022-10-05T22:14:02.881Z,2.80
2022-10-05T22:16:32.766Z,2.70
2022-10-05T22:19:03.728Z,4.40
2022-10-05T22:21:30.695Z,3.80
2022-10-05T22:23:57.642Z,3.20
2022-10-05T22:26:24.732Z,4.40
2022-10-05T22:28:55.470Z,4.70
2022-10-05T22:31:22.285Z,2.60
2022-10-05T22:33:49.168Z,5.00
2022-10-05T22:36:16.225Z,6.10
2022-10-05T22:38:43.048Z,5.70
2022-10-05T22:41:11.690Z,3.40
2022-10-05T22:43:39.018Z,5.10
2022-10-05T22:46:12.940Z,2.10
2022-10-05T22:48:40.223Z,3.30
2022-10-05T22:51:08.668Z,5.30
2022-10-05T22:53:35.516Z,2.70
2022-10-05T22:56:11.051Z,3.90
2022-10-05T22:58:38.200Z,5.50
2022-10-05T23:01:06.954Z,3.80
2022-10-05T23:03:34.435Z,3.60
2022-10-05T23:06:07.577Z,2.60
2022-10-05T23:08:35.734Z,3.30
2022-10-05T23:11:10.533Z,4.30
2022-10-05T23:13:37.239Z,2.90
2022-10-05T23:16:24.031Z,4.90
2022-10-05T23:18:53.154Z,2.30
2022-10-05T23:21:21.486Z,3.70
2022-10-05T23:23:50.940Z,4.00
2022-10-05T23:26:19.851Z,3.50
2022-10-05T23:28:47.578Z,3.30
2022-10-05T23:31:17.006Z,2.70
2022-10-05T23:33:44.233Z,5.00
2022-10-05T23:36:18.001Z,3.20
2022-10-05T23:38:45.021Z,3.10
2022-10-05T23:41:12.082Z,4.90
2022-10-05T23:43:39.179Z,3.10
2022-10-05T23:46:07.301Z,3.20
2022-10-05T23:48:35.040Z,3.80
2022-10-05T23:51:02.834Z,3.90
2022-10-05T23:53:30.067Z,3.90
2022-10-05T23:55:57.094Z,2.50
2022-10-05T23:58:24.408Z,2.80
